Time;durP1;ratioP1;P1;durP2;ratioP2;P2;SDS_P1;SDS_P2;PMS_P1;PMS_P2;Temp;Humidity;BMP_temperature;BMP_pressure;BME280_temperature;BME280_humidity;BME280_pressure;Samples;Min_cycle;Max_cycle;Signal;HPM_P1;HPM_P2
2022/09/30 00:01:20;;;;;;;16.05;10.95;;;;;;;;;;4993066;28;20107;-67
2022/09/30 00:03:49;;;;;;;15.90;10.88;;;;;;;;;;4993006;28;20038;-68
2022/09/30 00:06:14;;;;;;;17.88;11.25;;;;;;;;;;4992848;28;20028;-68
2022/09/30 00:08:40;;;;;;;14.23;10.65;;;;;;;;;;4992763;28;20109;-67
2022/09/30 00:11:17;;;;;;;14.95;10.68;;;;;;;;;;4992690;28;20031;-69
2022/09/30 00:13:44;;;;;;;14.82;10.95;;;;;;;;;;4993074;28;20427;-70
2022/09/30 00:16:11;;;;;;;14.52;10.35;;;;;;;;;;4992761;28;20485;-67
2022/09/30 00:18:38;;;;;;;17.23;10.07;;;;;;;;;;4992504;28;20499;-69
2022/09/30 00:21:05;;;;;;;17.27;10.65;;;;;;;;;;4992649;28;20042;-68
2022/09/30 00:23:30;;;;;;;15.35;11.23;;;;;;;;;;4992713;28;20089;-68
2022/09/30 00:26:05;;;;;;;17.58;10.95;;;;;;;;;;4992328;28;20030;-67
2022/09/30 00:28:30;;;;;;;15.95;10.60;;;;;;;;;;4992597;28;20056;-68
2022/09/30 00:31:01;;;;;;;14.93;10.73;;;;;;;;;;4992596;28;20026;-67
2022/09/30 00:33:27;;;;;;;15.85;10.73;;;;;;;;;;4992542;28;20073;-70
2022/09/30 00:35:52;;;;;;;16.45;11.98;;;;;;;;;;4992568;28;20488;-69
2022/09/30 00:38:18;;;;;;;16.20;11.45;;;;;;;;;;4992402;28;20110;-69
2022/09/30 00:40:43;;;;;;;18.10;11.45;;;;;;;;;;4992149;28;20105;-67
2022/09/30 00:43:19;;;;;;;14.98;10.77;;;;;;;;;;4992515;28;20076;-67
2022/09/30 00:45:55;;;;;;;18.05;12.35;;;;;;;;;;4992290;28;20018;-67
2022/09/30 00:48:29;;;;;;;15.70;11.10;;;;;;;;;;4992250;28;20537;-67
2022/09/30 00:50:55;;;;;;;19.10;11.27;;;;;;;;;;4992365;28;20388;-67
2022/09/30 00:53:29;;;;;;;19.05;12.77;;;;;;;;;;4990993;28;20061;-67
2022/09/30 00:56:23;;;;;;;18.63;12.55;;;;;;;;;;4991921;28;20029;-68
2022/09/30 00:59:07;;;;;;;16.70;11.57;;;;;;;;;;4991179;28;20045;-70
2022/09/30 01:01:37;;;;;;;22.35;12.02;;;;;;;;;;4992077;28;20038;-68
2022/09/30 01:04:08;;;;;;;16.90;12.53;;;;;;;;;;4992123;28;20026;-68
2022/09/30 01:06:34;;;;;;;17.88;12.10;;;;;;;;;;4992062;28;20367;-67
2022/09/30 01:09:00;;;;;;;21.25;12.20;;;;;;;;;;4991869;28;20157;-69
2022/09/30 01:11:29;;;;;;;19.13;12.75;;;;;;;;;;4992047;28;20487;-67
2022/09/30 01:14:00;;;;;;;20.25;12.98;;;;;;;;;;4991972;28;20031;-67
2022/09/30 01:16:38;;;;;;;19.98;12.88;;;;;;;;;;4992089;28;20034;-67
2022/09/30 01:19:31;;;;;;;18.10;12.77;;;;;;;;;;4991807;28;20108;-67
2022/09/30 01:22:29;;;;;;;18.38;10.95;;;;;;;;;;4991684;28;20026;-67
2022/09/30 01:25:22;;;;;;;21.13;12.40;;;;;;;;;;4969732;28;20068;-68
2022/09/30 01:27:53;;;;;;;18.35;11.98;;;;;;;;;;4970036;28;20113;-68
2022/09/30 01:30:56;;;;;;;18.20;12.73;;;;;;;;;;4970125;28;20043;-69
2022/09/30 01:33:21;;;;;;;15.98;11.80;;;;;;;;;;4970230;28;20035;-68
2022/09/30 01:35:50;;;;;;;16.13;11.90;;;;;;;;;;4971103;28;20446;-68
2022/09/30 01:38:28;;;;;;;15.95;11.52;;;;;;;;;;4973581;28;20478;-68
2022/09/30 01:41:00;;;;;;;22.42;13.85;;;;;;;;;;4973873;28;20496;-68
2022/09/30 01:43:44;;;;;;;22.63;13.25;;;;;;;;;;4973814;28;20043;-67
2022/09/30 01:46:43;;;;;;;20.23;12.18;;;;;;;;;;4973745;28;20151;-67
2022/09/30 01:49:36;;;;;;;17.42;11.85;;;;;;;;;;4973826;28;20099;-67
2022/09/30 01:52:34;;;;;;;17.10;11.50;;;;;;;;;;4973382;28;20035;-67
2022/09/30 01:55:08;;;;;;;20.45;12.75;;;;;;;;;;4973712;28;20050;-67
2022/09/30 01:57:34;;;;;;;20.10;12.85;;;;;;;;;;4973477;28;20030;-67
2022/09/30 02:00:06;;;;;;;24.25;14.52;;;;;;;;;;4973421;28;20400;-67
2022/09/30 02:02:38;;;;;;;22.92;14.50;;;;;;;;;;4991532;28;20065;-67
2022/09/30 02:05:14;;;;;;;22.02;14.20;;;;;;;;;;4995366;28;20055;-68
2022/09/30 02:07:53;;;;;;;18.85;12.63;;;;;;;;;;4994968;28;20113;-68
2022/09/30 02:10:30;;;;;;;21.08;14.10;;;;;;;;;;4995187;28;20026;-69
2022/09/30 02:13:30;;;;;;;17.25;12.18;;;;;;;;;;4995206;28;20033;-68
2022/09/30 02:16:00;;;;;;;20.80;12.95;;;;;;;;;;4990908;28;20038;-68
2022/09/30 02:18:30;;;;;;;21.13;13.10;;;;;;;;;;4994873;28;20030;-67
2022/09/30 02:21:00;;;;;;;20.50;13.27;;;;;;;;;;4994698;28;20032;-68
2022/09/30 02:23:30;;;;;;;20.98;12.35;;;;;;;;;;4994915;28;20068;-67
2022/09/30 02:26:05;;;;;;;19.50;12.15;;;;;;;;;;4994941;28;20069;-67
2022/09/30 02:28:33;;;;;;;17.27;12.02;;;;;;;;;;4995113;28;20395;-67
2022/09/30 02:31:02;;;;;;;18.88;12.52;;;;;;;;;;4994847;28;20038;-67
2022/09/30 02:33:41;;;;;;;17.38;11.55;;;;;;;;;;4994719;28;20022;-68
2022/09/30 02:36:16;;;;;;;17.27;11.88;;;;;;;;;;4994424;28;20387;-67
2022/09/30 02:38:47;;;;;;;17.90;12.13;;;;;;;;;;4994605;28;20030;-68
2022/09/30 02:41:22;;;;;;;16.98;11.23;;;;;;;;;;4994618;28;20110;-67
2022/09/30 02:43:49;;;;;;;17.92;12.07;;;;;;;;;;4993176;28;20509;-68
2022/09/30 02:46:40;;;;;;;21.83;13.50;;;;;;;;;;4994224;28;20069;-69
2022/09/30 02:49:32;;;;;;;20.33;12.40;;;;;;;;;;4993768;28;20025;-68
2022/09/30 02:52:14;;;;;;;17.52;11.45;;;;;;;;;;4994196;28;20033;-67
2022/09/30 02:55:07;;;;;;;20.65;12.48;;;;;;;;;;4994467;28;20072;-68
2022/09/30 02:57:47;;;;;;;18.38;11.65;;;;;;;;;;4993101;28;20034;-68
2022/09/30 03:00:13;;;;;;;16.83;11.95;;;;;;;;;;4994363;28;20472;-68
2022/09/30 03:02:40;;;;;;;20.88;11.88;;;;;;;;;;4994322;28;20030;-68
2022/09/30 03:05:05;;;;;;;30.63;17.20;;;;;;;;;;4994074;28;20075;-68
2022/09/30 03:07:32;;;;;;;19.83;13.05;;;;;;;;;;4994117;28;20045;-68
2022/09/30 03:09:58;;;;;;;18.20;11.93;;;;;;;;;;4993972;28;20106;-67
2022/09/30 03:12:29;;;;;;;16.83;11.55;;;;;;;;;;4994062;28;20506;-67
2022/09/30 03:15:01;;;;;;;15.80;10.98;;;;;;;;;;4994086;28;20117;-68
2022/09/30 03:17:45;;;;;;;17.67;12.10;;;;;;;;;;4993857;28;20035;-68
2022/09/30 03:20:35;;;;;;;17.42;12.20;;;;;;;;;;4993422;28;20361;-68
2022/09/30 03:23:09;;;;;;;18.35;11.93;;;;;;;;;;4994158;28;20034;-67
2022/09/30 03:26:02;;;;;;;17.98;12.07;;;;;;;;;;4993807;28;20101;-67
2022/09/30 03:28:37;;;;;;;18.58;11.95;;;;;;;;;;4993666;28;20026;-68
2022/09/30 03:31:17;;;;;;;17.90;11.55;;;;;;;;;;4993762;28;20030;-68
2022/09/30 03:34:01;;;;;;;18.23;11.15;;;;;;;;;;5023501;28;20024;-67
2022/09/30 03:36:31;;;;;;;19.73;12.95;;;;;;;;;;5033084;28;20038;-68
2022/09/30 03:39:08;;;;;;;22.20;14.50;;;;;;;;;;5032948;28;20534;-67
2022/09/30 03:41:51;;;;;;;17.95;11.80;;;;;;;;;;5032891;28;20041;-67
2022/09/30 03:44:26;;;;;;;22.98;11.32;;;;;;;;;;5032860;28;20049;-67
2022/09/30 03:47:00;;;;;;;23.83;11.77;;;;;;;;;;5032582;28;20030;-68
2022/09/30 03:49:43;;;;;;;21.10;11.85;;;;;;;;;;5032420;28;20051;-67
2022/09/30 03:52:11;;;;;;;31.20;11.80;;;;;;;;;;5032685;28;20021;-68
2022/09/30 03:54:55;;;;;;;18.38;11.45;;;;;;;;;;5032584;28;20029;-67
2022/09/30 03:57:21;;;;;;;19.38;11.98;;;;;;;;;;5032689;28;20067;-67
2022/09/30 03:59:46;;;;;;;17.27;12.18;;;;;;;;;;5032082;28;20050;-67
2022/09/30 04:02:15;;;;;;;18.35;11.23;;;;;;;;;;5032259;28;20025;-67
2022/09/30 04:04:41;;;;;;;19.50;10.98;;;;;;;;;;5032542;28;20048;-67
2022/09/30 04:07:09;;;;;;;23.63;12.32;;;;;;;;;;5032181;28;20021;-67
2022/09/30 04:09:35;;;;;;;19.30;11.73;;;;;;;;;;5032419;28;20048;-68
2022/09/30 04:12:01;;;;;;;21.90;12.07;;;;;;;;;;5032145;28;20367;-67
2022/09/30 04:14:26;;;;;;;18.63;12.20;;;;;;;;;;5032147;28;20025;-69
2022/09/30 04:16:52;;;;;;;19.13;11.85;;;;;;;;;;5032060;28;20032;-68
2022/09/30 04:19:17;;;;;;;21.13;12.55;;;;;;;;;;5031984;28;20530;-67
2022/09/30 04:21:43;;;;;;;19.60;12.65;;;;;;;;;;5010041;28;20038;-68
2022/09/30 04:24:08;;;;;;;20.85;12.75;;;;;;;;;;4992726;28;20023;-67
2022/09/30 04:26:34;;;;;;;26.30;12.88;;;;;;;;;;4992544;28;20105;-68
2022/09/30 04:28:59;;;;;;;18.40;12.32;;;;;;;;;;4992822;28;20026;-67
2022/09/30 04:31:25;;;;;;;17.50;12.93;;;;;;;;;;4992272;28;20022;-66
2022/09/30 04:33:50;;;;;;;19.02;11.98;;;;;;;;;;4992476;28;20543;-67
2022/09/30 04:36:16;;;;;;;20.52;13.27;;;;;;;;;;4992391;28;20049;-68
2022/09/30 04:38:42;;;;;;;21.00;14.35;;;;;;;;;;4992404;28;20032;-67
2022/09/30 04:41:14;;;;;;;19.23;12.80;;;;;;;;;;4992428;28;20472;-68
2022/09/30 04:43:44;;;;;;;20.08;12.88;;;;;;;;;;4991072;28;20357;-68
2022/09/30 04:46:09;;;;;;;21.63;12.88;;;;;;;;;;4991983;28;20449;-68
2022/09/30 04:48:35;;;;;;;22.50;12.43;;;;;;;;;;4992304;28;20023;-68
2022/09/30 04:51:00;;;;;;;17.00;11.90;;;;;;;;;;4992293;28;20030;-67
2022/09/30 04:53:26;;;;;;;22.67;12.65;;;;;;;;;;4992206;28;20048;-67
2022/09/30 04:55:58;;;;;;;16.92;11.18;;;;;;;;;;4992012;28;20384;-67
2022/09/30 04:58:24;;;;;;;18.77;11.30;;;;;;;;;;4992146;28;20080;-68
2022/09/30 05:00:49;;;;;;;16.90;11.70;;;;;;;;;;5001756;28;20052;-67
2022/09/30 05:03:15;;;;;;;20.95;11.90;;;;;;;;;;5011092;28;20083;-67
2022/09/30 05:05:43;;;;;;;21.52;13.52;;;;;;;;;;5011778;28;20056;-67
2022/09/30 05:08:08;;;;;;;21.75;13.55;;;;;;;;;;5027348;28;20107;-66
2022/09/30 05:10:34;;;;;;;25.35;13.25;;;;;;;;;;5031566;28;20021;-67
2022/09/30 05:12:59;;;;;;;21.70;12.43;;;;;;;;;;5032459;28;20486;-67
2022/09/30 05:15:25;;;;;;;25.38;12.30;;;;;;;;;;5032176;28;20102;-67
2022/09/30 05:17:52;;;;;;;27.45;12.32;;;;;;;;;;5032186;28;20037;-67
2022/09/30 05:20:18;;;;;;;19.38;11.95;;;;;;;;;;5015650;28;20053;-67
2022/09/30 05:22:43;;;;;;;20.05;12.38;;;;;;;;;;4993287;28;20426;-67
2022/09/30 05:25:09;;;;;;;21.77;12.93;;;;;;;;;;4993159;28;20361;-67
2022/09/30 05:27:34;;;;;;;20.88;11.30;;;;;;;;;;4992827;28;20053;-67
2022/09/30 05:30:00;;;;;;;23.60;11.75;;;;;;;;;;4992634;28;20037;-69
2022/09/30 05:32:25;;;;;;;17.30;10.40;;;;;;;;;;4992831;28;20044;-69
2022/09/30 05:34:51;;;;;;;21.17;11.45;;;;;;;;;;4992943;28;20383;-69
2022/09/30 05:37:17;;;;;;;17.20;11.07;;;;;;;;;;5006128;28;20056;-71
2022/09/30 05:39:42;;;;;;;22.25;12.10;;;;;;;;;;5012460;28;20050;-70
2022/09/30 05:42:08;;;;;;;26.83;15.88;;;;;;;;;;5012380;28;20483;-69
2022/09/30 05:44:33;;;;;;;26.75;15.05;;;;;;;;;;5012156;28;20022;-67
2022/09/30 05:46:59;;;;;;;30.50;14.45;;;;;;;;;;5012446;28;20033;-68
2022/09/30 05:49:25;;;;;;;26.73;15.13;;;;;;;;;;5012144;28;20049;-68
2022/09/30 05:51:51;;;;;;;31.13;17.48;;;;;;;;;;5012083;28;20026;-69
2022/09/30 05:54:16;;;;;;;33.00;18.75;;;;;;;;;;5012282;28;20029;-69
2022/09/30 05:56:42;;;;;;;45.33;21.88;;;;;;;;;;5012055;28;20030;-68
2022/09/30 05:59:07;;;;;;;55.33;27.15;;;;;;;;;;5011962;28;20022;-69
2022/09/30 06:01:33;;;;;;;49.58;24.88;;;;;;;;;;5012223;28;20037;-68
2022/09/30 06:03:58;;;;;;;60.17;27.60;;;;;;;;;;5011971;28;20019;-70
2022/09/30 06:06:24;;;;;;;49.95;25.55;;;;;;;;;;5011996;28;20062;-70
2022/09/30 06:08:50;;;;;;;45.03;23.45;;;;;;;;;;5012095;28;20541;-69
2022/09/30 06:11:20;;;;;;;42.90;23.50;;;;;;;;;;5012132;28;20415;-69
2022/09/30 06:13:48;;;;;;;40.67;22.42;;;;;;;;;;5011785;28;20325;-67
2022/09/30 06:16:14;;;;;;;37.50;21.20;;;;;;;;;;5011821;28;20117;-69
2022/09/30 06:18:40;;;;;;;30.17;17.20;;;;;;;;;;5011873;28;20127;-68
2022/09/30 06:21:07;;;;;;;25.80;15.75;;;;;;;;;;5004890;28;20030;-68
2022/09/30 06:23:36;;;;;;;20.17;13.05;;;;;;;;;;4995861;28;20419;-67
2022/09/30 06:26:04;;;;;;;19.83;12.82;;;;;;;;;;4995845;28;20030;-70
2022/09/30 06:28:33;;;;;;;22.98;12.10;;;;;;;;;;4995548;28;20452;-69
2022/09/30 06:30:59;;;;;;;14.75;9.07;;;;;;;;;;4995943;28;20454;-69
2022/09/30 06:33:25;;;;;;;12.50;8.80;;;;;;;;;;4995780;28;20030;-70
2022/09/30 06:35:50;;;;;;;10.55;8.10;;;;;;;;;;4995796;28;20034;-68
2022/09/30 06:38:16;;;;;;;13.15;9.43;;;;;;;;;;4995823;28;20158;-68
2022/09/30 06:40:43;;;;;;;11.70;8.77;;;;;;;;;;4995661;28;20058;-66
2022/09/30 06:43:10;;;;;;;12.50;8.43;;;;;;;;;;4995434;28;20034;-68
2022/09/30 06:45:36;;;;;;;12.43;8.60;;;;;;;;;;4995704;28;20018;-67
2022/09/30 06:48:04;;;;;;;10.95;8.20;;;;;;;;;;4995366;28;20120;-70
2022/09/30 06:50:30;;;;;;;10.13;7.43;;;;;;;;;;4995617;28;20435;-70
2022/09/30 06:52:58;;;;;;;11.30;7.75;;;;;;;;;;4995614;28;20030;-69
2022/09/30 06:55:25;;;;;;;10.27;7.80;;;;;;;;;;4995482;28;20037;-69
2022/09/30 06:57:52;;;;;;;11.07;7.68;;;;;;;;;;4995248;28;20432;-68
2022/09/30 07:00:17;;;;;;;10.85;7.18;;;;;;;;;;4995424;28;20038;-69
2022/09/30 07:02:43;;;;;;;11.82;9.30;;;;;;;;;;4995347;28;20038;-68
2022/09/30 07:05:08;;;;;;;13.27;10.15;;;;;;;;;;4995533;28;20027;-68
2022/09/30 07:07:35;;;;;;;9.70;6.78;;;;;;;;;;4994946;28;20480;-67
2022/09/30 07:10:01;;;;;;;9.77;6.70;;;;;;;;;;4995006;28;20083;-68
2022/09/30 07:12:27;;;;;;;10.35;6.88;;;;;;;;;;4994891;28;20038;-69
2022/09/30 07:14:54;;;;;;;8.95;6.85;;;;;;;;;;4995279;28;20031;-68
2022/09/30 07:17:20;;;;;;;8.63;6.55;;;;;;;;;;4995086;28;20466;-67
2022/09/30 07:19:45;;;;;;;7.97;6.13;;;;;;;;;;4994707;28;20083;-70
2022/09/30 07:22:27;;;;;;;7.38;6.00;;;;;;;;;;4994890;28;20064;-68
2022/09/30 07:24:53;;;;;;;7.90;5.95;;;;;;;;;;4995141;28;20034;-67
2022/09/30 07:27:19;;;;;;;11.10;6.13;;;;;;;;;;4994497;28;20022;-67
2022/09/30 07:29:45;;;;;;;7.00;6.00;;;;;;;;;;4994951;28;20387;-67
2022/09/30 07:32:11;;;;;;;6.57;4.93;;;;;;;;;;4994753;28;20022;-67
2022/09/30 07:34:41;;;;;;;9.88;6.03;;;;;;;;;;5010863;28;20037;-67
2022/09/30 07:37:07;;;;;;;7.13;5.53;;;;;;;;;;5014187;28;20457;-67
2022/09/30 07:39:33;;;;;;;6.50;5.70;;;;;;;;;;5014288;28;20080;-70
2022/09/30 07:42:00;;;;;;;8.95;6.30;;;;;;;;;;5014099;28;20057;-70
2022/09/30 07:44:28;;;;;;;8.20;6.15;;;;;;;;;;5013952;28;20030;-70
2022/09/30 07:46:54;;;;;;;9.15;6.35;;;;;;;;;;5013740;28;20026;-70
2022/09/30 07:49:26;;;;;;;8.73;5.97;;;;;;;;;;5014064;28;20092;-70
2022/09/30 07:51:54;;;;;;;10.63;6.07;;;;;;;;;;5014147;28;20105;-70
2022/09/30 07:54:23;;;;;;;7.38;6.47;;;;;;;;;;5013688;28;20406;-70
2022/09/30 07:56:49;;;;;;;6.60;5.90;;;;;;;;;;5013932;28;20057;-70
2022/09/30 07:59:15;;;;;;;7.70;5.57;;;;;;;;;;5014003;28;20048;-70
2022/09/30 08:01:40;;;;;;;8.00;5.40;;;;;;;;;;5012672;28;20471;-69
2022/09/30 08:04:08;;;;;;;9.98;6.10;;;;;;;;;;5013525;28;20030;-70
2022/09/30 08:06:45;;;;;;;8.65;5.43;;;;;;;;;;5013743;28;20378;-70
2022/09/30 08:09:11;;;;;;;7.05;5.60;;;;;;;;;;5013741;28;20538;-69
2022/09/30 08:11:37;;;;;;;8.63;5.40;;;;;;;;;;5013616;28;20037;-70
2022/09/30 08:14:03;;;;;;;6.45;5.75;;;;;;;;;;5013437;28;20071;-70
2022/09/30 08:16:29;;;;;;;8.27;5.53;;;;;;;;;;5013573;28;20387;-70
2022/09/30 08:18:56;;;;;;;7.18;5.50;;;;;;;;;;5013431;28;20035;-70
2022/09/30 08:21:22;;;;;;;7.13;5.45;;;;;;;;;;5005175;28;20026;-66
2022/09/30 08:23:48;;;;;;;7.70;5.30;;;;;;;;;;4993575;28;20022;-67
2022/09/30 08:26:15;;;;;;;6.95;5.78;;;;;;;;;;4993653;28;20027;-66
2022/09/30 08:28:42;;;;;;;6.90;5.82;;;;;;;;;;4993553;28;20065;-70
2022/09/30 08:31:10;;;;;;;8.30;5.75;;;;;;;;;;4993620;28;20030;-70
2022/09/30 08:33:36;;;;;;;7.60;5.47;;;;;;;;;;4993483;28;20464;-71
2022/09/30 08:36:07;;;;;;;6.90;5.47;;;;;;;;;;4993491;28;20049;-70
2022/09/30 08:38:33;;;;;;;7.28;5.70;;;;;;;;;;4993163;28;20108;-69
2022/09/30 08:41:13;;;;;;;6.28;5.22;;;;;;;;;;4993496;28;20368;-70
2022/09/30 08:43:50;;;;;;;6.22;5.38;;;;;;;;;;4993597;28;20027;-69
2022/09/30 08:46:46;;;;;;;6.70;5.18;;;;;;;;;;4993227;28;20030;-68
2022/09/30 08:49:26;;;;;;;6.22;5.30;;;;;;;;;;4993460;28;20081;-71
2022/09/30 08:51:52;;;;;;;7.45;5.82;;;;;;;;;;4993173;28;20027;-70
2022/09/30 08:54:23;;;;;;;9.27;5.35;;;;;;;;;;4993158;28;20030;-70
2022/09/30 08:56:49;;;;;;;6.38;4.97;;;;;;;;;;4993238;28;20482;-70
2022/09/30 08:59:25;;;;;;;6.90;4.97;;;;;;;;;;4993108;28;20058;-69
2022/09/30 09:02:18;;;;;;;7.40;5.47;;;;;;;;;;4993270;28;20026;-69
2022/09/30 09:04:45;;;;;;;4.82;3.90;;;;;;;;;;4992455;28;20407;-71
2022/09/30 09:07:34;;;;;;;7.50;4.22;;;;;;;;;;4992850;28;20110;-70
2022/09/30 09:10:12;;;;;;;5.20;3.88;;;;;;;;;;4993008;28;20037;-70
2022/09/30 09:12:45;;;;;;;6.45;3.67;;;;;;;;;;4992954;28;20503;-70
2022/09/30 09:15:16;;;;;;;5.25;3.45;;;;;;;;;;4993118;28;20391;-70
2022/09/30 09:18:09;;;;;;;4.97;3.30;;;;;;;;;;4993088;28;20027;-69
2022/09/30 09:20:41;;;;;;;6.38;3.53;;;;;;;;;;4992692;28;20142;-70
2022/09/30 09:23:10;;;;;;;5.30;3.58;;;;;;;;;;4992901;28;20033;-69
2022/09/30 09:25:35;;;;;;;6.32;3.60;;;;;;;;;;4991612;28;20032;-70
2022/09/30 09:28:04;;;;;;;5.60;3.72;;;;;;;;;;4992854;28;20109;-70
2022/09/30 09:30:42;;;;;;;5.37;3.40;;;;;;;;;;4992967;28;20073;-71
2022/09/30 09:33:25;;;;;;;7.32;3.30;;;;;;;;;;4992952;28;20050;-69
2022/09/30 09:35:53;;;;;;;4.88;3.42;;;;;;;;;;4992775;28;20117;-67
2022/09/30 09:38:30;;;;;;;5.13;3.28;;;;;;;;;;4992876;28;20035;-67
2022/09/30 09:41:27;;;;;;;4.40;2.80;;;;;;;;;;4992936;28;20061;-68
2022/09/30 09:44:04;;;;;;;5.35;3.22;;;;;;;;;;4992740;28;20038;-67
2022/09/30 09:46:33;;;;;;;5.03;3.30;;;;;;;;;;4992545;28;20030;-71
2022/09/30 09:49:19;;;;;;;7.50;3.00;;;;;;;;;;4992623;28;20058;-70
2022/09/30 09:52:06;;;;;;;4.95;3.00;;;;;;;;;;4992523;28;20487;-69
2022/09/30 09:54:36;;;;;;;3.67;2.72;;;;;;;;;;4992614;28;20034;-71
2022/09/30 09:57:09;;;;;;;5.13;3.17;;;;;;;;;;4993748;28;20034;-68
2022/09/30 09:59:35;;;;;;;7.35;3.65;;;;;;;;;;4996346;28;20030;-70
2022/09/30 10:02:01;;;;;;;3.47;2.47;;;;;;;;;;4996274;28;20112;-70
2022/09/30 10:04:32;;;;;;;3.92;2.83;;;;;;;;;;4996344;28;20065;-67
2022/09/30 10:07:11;;;;;;;9.88;3.20;;;;;;;;;;4995961;28;20534;-67
2022/09/30 10:09:39;;;;;;;4.15;2.05;;;;;;;;;;4996369;28;20031;-67
2022/09/30 10:12:04;;;;;;;3.38;1.90;;;;;;;;;;4994648;28;20392;-68
2022/09/30 10:14:35;;;;;;;3.45;2.20;;;;;;;;;;4996214;28;20030;-71
2022/09/30 10:17:02;;;;;;;4.97;1.90;;;;;;;;;;4996049;28;20122;-68
2022/09/30 10:19:31;;;;;;;4.25;2.00;;;;;;;;;;4995614;28;20043;-67
2022/09/30 10:22:08;;;;;;;3.63;1.98;;;;;;;;;;5004310;28;20029;-67
2022/09/30 10:24:36;;;;;;;4.63;1.92;;;;;;;;;;5025969;28;20041;-70
2022/09/30 10:27:01;;;;;;;5.28;2.28;;;;;;;;;;5021503;28;20022;-68
2022/09/30 10:29:32;;;;;;;6.80;2.00;;;;;;;;;;5024989;28;20103;-68
2022/09/30 10:32:00;;;;;;;3.38;1.80;;;;;;;;;;5023059;28;20437;-68
2022/09/30 10:34:27;;;;;;;2.65;1.70;;;;;;;;;;5022387;28;20018;-67
2022/09/30 10:36:53;;;;;;;1.92;1.45;;;;;;;;;;5022142;28;20394;-70
2022/09/30 10:39:31;;;;;;;1.98;1.40;;;;;;;;;;5023756;28;20031;-68
2022/09/30 10:42:22;;;;;;;3.72;1.92;;;;;;;;;;5024297;28;20040;-69
2022/09/30 10:44:53;;;;;;;2.30;1.70;;;;;;;;;;5024974;28;20100;-71
2022/09/30 10:47:22;;;;;;;3.03;1.65;;;;;;;;;;5025402;28;20022;-67
2022/09/30 10:49:59;;;;;;;3.15;1.90;;;;;;;;;;5021433;28;20014;-68
2022/09/30 10:52:29;;;;;;;2.92;1.83;;;;;;;;;;5020989;28;20168;-71
2022/09/30 10:54:58;;;;;;;1.88;1.48;;;;;;;;;;5024200;28;20108;-71
2022/09/30 10:57:30;;;;;;;3.05;1.70;;;;;;;;;;5025465;28;20025;-71
2022/09/30 11:00:07;;;;;;;2.72;1.80;;;;;;;;;;5024861;28;20105;-71
2022/09/30 11:02:38;;;;;;;5.05;1.60;;;;;;;;;;5023083;28;20026;-71
2022/09/30 11:05:26;;;;;;;3.90;1.90;;;;;;;;;;5023253;28;20399;-71
2022/09/30 11:08:13;;;;;;;3.05;1.70;;;;;;;;;;5021561;28;20037;-70
2022/09/30 11:11:00;;;;;;;4.05;1.50;;;;;;;;;;5024298;28;20033;-70
2022/09/30 11:13:49;;;;;;;2.67;1.60;;;;;;;;;;5024755;28;20507;-71
2022/09/30 11:16:43;;;;;;;2.65;1.60;;;;;;;;;;5023242;28;20028;-72
2022/09/30 11:19:47;;;;;;;3.35;1.80;;;;;;;;;;5020871;28;20038;-71
2022/09/30 11:22:28;;;;;;;3.90;1.85;;;;;;;;;;5018517;28;20100;-70
2022/09/30 11:24:56;;;;;;;2.65;1.65;;;;;;;;;;5022691;28;20033;-71
2022/09/30 11:27:21;;;;;;;6.07;1.70;;;;;;;;;;5022680;28;20026;-70
2022/09/30 11:29:57;;;;;;;2.63;1.55;;;;;;;;;;5024636;28;20371;-71
2022/09/30 11:32:40;;;;;;;4.40;1.60;;;;;;;;;;5024452;28;20394;-71
2022/09/30 11:35:21;;;;;;;2.67;1.67;;;;;;;;;;5020440;28;20493;-71
2022/09/30 11:38:13;;;;;;;2.80;1.60;;;;;;;;;;5020330;28;20121;-71
2022/09/30 11:40:38;;;;;;;1.80;1.27;;;;;;;;;;5023478;28;20025;-70
2022/09/30 11:43:28;;;;;;;2.20;1.60;;;;;;;;;;5022470;28;20014;-69
2022/09/30 11:46:12;;;;;;;4.50;1.60;;;;;;;;;;5021934;28;20025;-71
2022/09/30 11:48:42;;;;;;;2.50;1.70;;;;;;;;;;5023089;28;20057;-71
2022/09/30 11:51:23;;;;;;;3.30;1.83;;;;;;;;;;5020750;28;20029;-71
2022/09/30 11:53:54;;;;;;;2.22;1.17;;;;;;;;;;5020517;28;20426;-71
2022/09/30 11:56:24;;;;;;;2.35;1.40;;;;;;;;;;5022325;28;20083;-71
2022/09/30 11:58:54;;;;;;;2.60;1.40;;;;;;;;;;5020983;28;20050;-71
2022/09/30 12:01:40;;;;;;;3.42;1.73;;;;;;;;;;5022025;28;20041;-70
2022/09/30 12:04:13;;;;;;;2.78;1.42;;;;;;;;;;5022119;28;20349;-71
2022/09/30 12:06:48;;;;;;;4.20;1.67;;;;;;;;;;5021997;28;20087;-70
2022/09/30 12:09:34;;;;;;;2.25;1.50;;;;;;;;;;5021710;28;20434;-68
2022/09/30 12:12:09;;;;;;;2.30;1.48;;;;;;;;;;5023029;28;20474;-71
2022/09/30 12:15:00;;;;;;;2.47;1.75;;;;;;;;;;5021750;28;20129;-71
2022/09/30 12:17:43;;;;;;;3.40;1.70;;;;;;;;;;5023604;28;20120;-71
2022/09/30 12:20:29;;;;;;;3.50;1.55;;;;;;;;;;5019470;28;20066;-71
2022/09/30 12:23:13;;;;;;;5.65;1.55;;;;;;;;;;5021535;28;20383;-71
2022/09/30 12:25:45;;;;;;;3.20;1.63;;;;;;;;;;5022864;28;20030;-72
2022/09/30 12:32:07;;;;;;;2.80;1.50;;;;;;;;;;5021388;28;20085;-72
2022/09/30 12:34:42;;;;;;;2.42;1.60;;;;;;;;;;5022643;28;20450;-70
2022/09/30 12:37:39;;;;;;;3.75;1.70;;;;;;;;;;5018207;28;20022;-71
2022/09/30 12:40:25;;;;;;;2.92;1.65;;;;;;;;;;5023258;28;20040;-71
2022/09/30 12:43:08;;;;;;;3.30;1.48;;;;;;;;;;5020294;28;20072;-71
2022/09/30 12:45:36;;;;;;;2.97;1.65;;;;;;;;;;5020693;28;20076;-71
2022/09/30 12:48:07;;;;;;;3.75;2.08;;;;;;;;;;5021002;28;20044;-70
2022/09/30 12:50:51;;;;;;;4.47;1.95;;;;;;;;;;5022424;28;20060;-68
2022/09/30 12:53:39;;;;;;;3.33;1.90;;;;;;;;;;5021790;28;20014;-70
2022/09/30 12:56:08;;;;;;;4.75;1.67;;;;;;;;;;5022933;28;20537;-68
2022/09/30 12:58:42;;;;;;;2.67;1.50;;;;;;;;;;5022154;28;20033;-70
2022/09/30 13:01:13;;;;;;;4.68;1.40;;;;;;;;;;5019339;28;20411;-70
2022/09/30 13:03:47;;;;;;;2.08;1.30;;;;;;;;;;5021351;28;20545;-70
2022/09/30 13:06:14;;;;;;;2.80;1.60;;;;;;;;;;5020457;28;20088;-70
2022/09/30 13:08:42;;;;;;;2.10;1.40;;;;;;;;;;5020999;28;20525;-70
2022/09/30 13:11:41;;;;;;;3.95;1.85;;;;;;;;;;5018821;28;20038;-68
2022/09/30 13:14:44;;;;;;;2.60;1.50;;;;;;;;;;5018058;28;20113;-70
2022/09/30 13:17:10;;;;;;;2.35;1.38;;;;;;;;;;5021562;28;20034;-71
2022/09/30 13:19:39;;;;;;;2.20;1.42;;;;;;;;;;5021404;28;20049;-70
2022/09/30 13:22:19;;;;;;;2.10;1.40;;;;;;;;;;5018612;28;20037;-70
2022/09/30 13:24:57;;;;;;;3.38;1.70;;;;;;;;;;5020675;28;20633;-71
2022/09/30 13:27:42;;;;;;;2.75;1.40;;;;;;;;;;5020798;28;20117;-68
2022/09/30 13:30:16;;;;;;;9.48;1.60;;;;;;;;;;5018874;28;20026;-70
2022/09/30 13:32:46;;;;;;;3.50;1.48;;;;;;;;;;5021994;28;20360;-70
2022/09/30 13:35:32;;;;;;;6.28;1.60;;;;;;;;;;5025974;28;20041;-70
2022/09/30 13:38:13;;;;;;;2.35;1.58;;;;;;;;;;5025413;28;20026;-69
2022/09/30 13:40:47;;;;;;;;;;;;;;;;;;5025890;28;20018;-70
2022/09/30 13:43:38;;;;;;;2.20;1.30;;;;;;;;;;5023828;28;19959;-70
2022/09/30 13:46:10;;;;;;;4.43;1.30;;;;;;;;;;5026184;28;20026;-70
2022/09/30 13:48:40;;;;;;;1.75;1.30;;;;;;;;;;5025859;28;20490;-70
2022/09/30 13:51:13;;;;;;;4.47;1.30;;;;;;;;;;5024671;28;20072;-70
2022/09/30 13:53:50;;;;;;;2.17;1.30;;;;;;;;;;5024759;28;20032;-70
2022/09/30 13:56:21;;;;;;;1.85;1.20;;;;;;;;;;5024368;28;20339;-69
2022/09/30 13:59:08;;;;;;;4.15;1.40;;;;;;;;;;5021668;28;20025;-69
2022/09/30 14:02:06;;;;;;;4.60;1.65;;;;;;;;;;5023822;28;20037;-70
2022/09/30 14:04:50;;;;;;;1.73;1.08;;;;;;;;;;5025486;28;20045;-70
2022/09/30 14:07:29;;;;;;;1.95;1.30;;;;;;;;;;5026159;28;20463;-69
2022/09/30 14:10:04;;;;;;;3.90;1.15;;;;;;;;;;5024032;28;20056;-69
2022/09/30 14:12:48;;;;;;;5.88;1.27;;;;;;;;;;5022180;28;20033;-69
2022/09/30 14:15:32;;;;;;;3.47;1.30;;;;;;;;;;5023553;28;20068;-69
2022/09/30 14:18:22;;;;;;;4.40;1.38;;;;;;;;;;5024547;28;20169;-69
2022/09/30 14:20:53;;;;;;;4.93;1.45;;;;;;;;;;5021797;28;20074;-71
2022/09/30 14:23:21;;;;;;;2.70;1.20;;;;;;;;;;5024140;28;20018;-71
2022/09/30 14:25:52;;;;;;;2.38;1.30;;;;;;;;;;5021369;28;20023;-71
2022/09/30 14:28:24;;;;;;;;;;;;;;;;;;5024896;28;20075;-71
2022/09/30 14:31:08;;;;;;;3.10;1.52;;;;;;;;;;5025449;28;20384;-70
2022/09/30 14:33:35;;;;;;;2.53;1.00;;;;;;;;;;5023067;28;20064;-70
2022/09/30 14:36:28;;;;;;;4.25;1.30;;;;;;;;;;5023757;28;20025;-71
2022/09/30 14:38:59;;;;;;;2.95;1.50;;;;;;;;;;5024906;28;20052;-71
2022/09/30 14:41:28;;;;;;;3.60;1.70;;;;;;;;;;5023417;28;20387;-70
2022/09/30 14:43:58;;;;;;;2.15;1.48;;;;;;;;;;5024485;28;20025;-71
2022/09/30 14:46:36;;;;;;;3.40;1.50;;;;;;;;;;5025488;28;20014;-71
2022/09/30 14:49:08;;;;;;;1.90;1.17;;;;;;;;;;5025599;28;20455;-70
2022/09/30 14:51:42;;;;;;;3.30;1.40;;;;;;;;;;5022724;28;20506;-68
2022/09/30 14:54:30;;;;;;;4.35;1.65;;;;;;;;;;5023660;28;20030;-69
2022/09/30 14:56:59;;;;;;;1.80;1.23;;;;;;;;;;5031894;28;20025;-69
2022/09/30 14:59:30;;;;;;;3.72;1.60;;;;;;;;;;5034646;28;20548;-69
2022/09/30 15:02:01;;;;;;;2.10;1.50;;;;;;;;;;5034787;28;20479;-68
2022/09/30 15:04:32;;;;;;;3.25;1.20;;;;;;;;;;5034570;28;20378;-69
2022/09/30 15:07:00;;;;;;;2.88;1.25;;;;;;;;;;5034687;28;20083;-71
2022/09/30 15:09:35;;;;;;;2.65;1.40;;;;;;;;;;5033055;28;20447;-69